الصفحة الرئيسية
METAR-TAF:

METAR-TAF

مطار :

زابل, إيران

دائرة عرض: 31-20N, خط طول: 061-29E, ارتفاع: 489 متر

مراقبة الطقس الحالي

تاريخ ووقت الإصدار 28 دقيقة قبل الساعة 08:00UTC
ريح 27 عقدة من الشمال/الشمال الغربي
درجة الحرارة 41°درجة مئوية
الرطوبة 13%
ضغط 1002 hPa
الرؤية: 8000 متر

METAR: OIZB 140800Z 34027KT 8000 NSC 41/07 Q1002

زمن: 12:58 (08:28 UTC)


TAF: مفقودة

أرصاد الطقس والتوقعات من أكثر من 4000 مطار (تقارير الطقس للمطار METAR والتنبؤ بالطقس بالمطارTAF).

المحطات المتاحة هي النقط الصفراء والحمراء على الخريطة.

حرك المؤشر فوق النقطة لمعرفة اسم المحطة.

ثم انقر لمعرفة أرصاد وتوقعات الطقس.

لتغيير الخارطة: اضغط على الأزرار الخضراء مع رمز الصليب الأسود للتكبير. على الزر الأخضر مع شرطة للتصغير، أو على الأسهم الخضراء للخرائط المجاورة.


METAR-TAF: